Time;durP1;ratioP1;P1;durP2;ratioP2;P2;SDS_P1;SDS_P2;PMS_P1;PMS_P2;Temp;Humidity;BMP_temperature;BMP_pressure;BME280_temperature;BME280_humidity;BME280_pressure;Samples;Min_cycle;Max_cycle;Signal;HPM_P1;HPM_P2
2024/04/03 00:01:05;;;;;;;2.40;2.20;;;5.30;99.90;;;;;;6230196;28;20461;-58
2024/04/03 00:04:16;;;;;;;3.53;2.40;;;5.20;99.90;;;;;;6230458;28;20885;-58
2024/04/03 00:07:19;;;;;;;2.10;2.00;;;5.20;99.90;;;;;;6242599;28;20454;-57
2024/04/03 00:10:24;;;;;;;2.57;2.37;;;5.10;99.90;;;;;;6252775;28;20445;-57
2024/04/03 00:13:29;;;;;;;2.23;1.90;;;5.00;99.90;;;;;;6219416;28;21102;-58
2024/04/03 00:16:47;;;;;;;3.93;2.77;;;5.00;99.90;;;;;;6232562;28;20453;-60
2024/04/03 00:19:52;;;;;;;3.23;2.23;;;5.00;99.90;;;;;;6220327;28;20497;-59
2024/04/03 00:22:55;;;;;;;6.10;3.10;;;5.00;99.90;;;;;;6206086;28;21133;-59
2024/04/03 00:26:00;;;;;;;4.63;3.00;;;5.00;99.90;;;;;;6207966;28;20459;-60
2024/04/03 00:29:07;;;;;;;4.83;2.70;;;5.00;99.90;;;;;;6208500;28;20451;-60
2024/04/03 00:32:11;;;;;;;2.40;2.20;;;5.00;99.90;;;;;;6208104;28;20494;-60
2024/04/03 00:35:16;;;;;;;2.77;2.53;;;4.90;99.90;;;;;;6207138;28;20489;-59
2024/04/03 00:38:20;;;;;;;5.87;3.30;;;4.90;99.90;;;;;;6217090;28;20460;-59
2024/04/03 00:41:23;;;;;;;2.80;2.60;;;4.80;99.90;;;;;;6208526;28;20448;-59
2024/04/03 00:44:25;;;;;;;3.60;2.77;;;4.80;99.90;;;;;;6208019;28;20448;-60
2024/04/03 00:47:42;;;;;;;3.20;3.00;;;4.80;99.90;;;;;;6208106;28;20451;-60
2024/04/03 00:50:46;;;;;;;3.70;3.30;;;4.70;99.90;;;;;;6229737;28;20478;-60
2024/04/03 00:53:49;;;;;;;4.13;3.40;;;4.70;99.90;;;;;;6218428;28;20493;-60
2024/04/03 00:56:51;;;;;;;4.67;2.90;;;4.60;99.90;;;;;;6208312;28;20930;-59
2024/04/03 01:00:00;;;;;;;3.00;2.40;;;4.60;99.90;;;;;;6208610;28;21196;-59
2024/04/03 01:03:07;;;;;;;2.70;2.50;;;4.50;99.90;;;;;;6230598;28;20526;-59
2024/04/03 01:06:11;;;;;;;4.00;2.17;;;4.50;99.90;;;;;;6224515;28;20464;-59
2024/04/03 01:09:15;;;;;;;5.27;3.40;;;4.50;99.90;;;;;;6214253;28;20512;-60
2024/04/03 01:12:21;;;;;;;2.53;2.33;;;4.40;99.90;;;;;;6231755;28;20939;-59
2024/04/03 01:15:24;;;;;;;3.23;2.93;;;4.40;99.90;;;;;;6215479;28;20828;-59
2024/04/03 01:18:35;;;;;;;3.10;2.07;;;4.40;99.90;;;;;;6200073;28;20472;-59
2024/04/03 01:21:39;;;;;;;2.50;2.30;;;4.40;99.90;;;;;;6219819;28;20467;-59
2024/04/03 01:24:43;;;;;;;2.90;2.40;;;4.40;99.90;;;;;;6230696;28;20793;-59
2024/04/03 01:27:50;;;;;;;2.10;1.87;;;4.40;99.90;;;;;;6231673;28;20508;-59
2024/04/03 01:31:02;;;;;;;2.20;2.00;;;4.40;99.90;;;;;;6225291;28;20463;-59
2024/04/03 01:34:06;;;;;;;3.97;2.50;;;4.50;99.90;;;;;;6210183;28;20483;-58
2024/04/03 01:37:09;;;;;;;2.50;2.30;;;4.50;99.90;;;;;;6211722;28;20452;-60
2024/04/03 01:40:18;;;;;;;2.10;2.00;;;4.50;99.90;;;;;;6209150;28;20459;-59
2024/04/03 01:43:25;;;;;;;2.60;2.00;;;4.50;99.90;;;;;;6227696;28;20478;-59
2024/04/03 01:46:28;;;;;;;2.60;2.03;;;4.50;99.90;;;;;;6230103;28;20750;-59
2024/04/03 01:49:39;;;;;;;2.67;1.87;;;4.50;99.90;;;;;;6222327;28;20974;-59
2024/04/03 01:52:43;;;;;;;3.00;2.80;;;4.50;99.90;;;;;;6207101;28;20478;-58
2024/04/03 01:55:59;;;;;;;2.77;1.93;;;4.60;99.90;;;;;;6206086;28;20488;-60
2024/04/03 01:59:03;;;;;;;2.70;1.80;;;4.50;99.90;;;;;;6216376;28;20447;-58
2024/04/03 02:02:16;;;;;;;3.43;1.97;;;4.50;99.90;;;;;;6230322;28;20471;-58
2024/04/03 02:05:18;;;;;;;2.40;1.83;;;4.50;99.90;;;;;;6214481;28;20884;-59
2024/04/03 02:08:30;;;;;;;2.20;2.00;;;4.50;99.90;;;;;;6230892;28;20485;-59
2024/04/03 02:11:45;;;;;;;2.40;2.00;;;4.50;99.90;;;;;;6215570;28;20538;-59
2024/04/03 02:14:50;;;;;;;2.37;2.17;;;4.40;99.90;;;;;;6206352;28;20865;-59
2024/04/03 02:17:54;;;;;;;1.80;1.70;;;4.40;99.90;;;;;;6205989;28;20448;-59
2024/04/03 02:24:17;;;;;;;1.60;1.50;;;4.40;99.90;;;;;;6206481;28;20452;-59
2024/04/03 02:27:33;;;;;;;2.00;1.90;;;4.40;99.90;;;;;;6206757;28;20448;-58
2024/04/03 02:30:45;;;;;;;2.77;2.00;;;4.40;99.90;;;;;;6212467;28;20456;-59
2024/04/03 02:33:48;;;;;;;5.53;2.20;;;4.30;99.90;;;;;;6206219;28;20579;-58
2024/04/03 02:37:00;;;;;;;2.30;2.10;;;4.30;99.90;;;;;;6226629;28;20455;-59
2024/04/03 02:40:06;;;;;;;2.10;1.90;;;4.20;99.90;;;;;;6252169;28;20569;-58
2024/04/03 02:43:12;;;;;;;1.83;1.73;;;4.20;99.90;;;;;;6255243;28;20604;-58
2024/04/03 02:46:15;;;;;;;1.90;1.80;;;4.20;99.90;;;;;;6228236;28;20452;-59
2024/04/03 02:49:20;;;;;;;1.80;1.70;;;4.20;99.90;;;;;;6206525;28;20448;-58
2024/04/03 02:52:22;;;;;;;4.17;2.30;;;4.20;99.90;;;;;;6205542;28;20479;-59
2024/04/03 02:55:28;;;;;;;2.67;2.03;;;4.20;99.90;;;;;;6219619;28;20483;-58
2024/04/03 02:58:46;;;;;;;2.83;2.60;;;4.10;99.90;;;;;;6205216;28;20752;-59
2024/04/03 03:01:53;;;;;;;3.10;2.63;;;4.10;99.90;;;;;;6205161;28;20794;-58
2024/04/03 03:04:59;;;;;;;3.40;3.10;;;4.10;99.90;;;;;;6223290;28;20451;-59
2024/04/03 03:08:02;;;;;;;4.10;2.80;;;4.10;99.90;;;;;;6215443;28;20463;-59
2024/04/03 03:11:13;;;;;;;2.40;2.20;;;4.00;99.90;;;;;;6204175;28;20561;-59
2024/04/03 03:14:24;;;;;;;3.30;2.17;;;4.00;99.90;;;;;;6205210;28;20476;-59
2024/04/03 03:17:26;;;;;;;2.23;2.10;;;4.00;99.90;;;;;;6205462;28;20452;-59
2024/04/03 03:20:29;;;;;;;3.57;2.37;;;4.00;99.90;;;;;;6205588;28;20555;-59
2024/04/03 03:23:33;;;;;;;2.67;2.47;;;4.00;99.90;;;;;;6202410;28;20460;-59
2024/04/03 03:26:39;;;;;;;2.93;2.40;;;4.00;99.90;;;;;;6216537;28;20465;-58
2024/04/03 03:29:53;;;;;;;3.23;2.70;;;4.00;99.90;;;;;;6229121;28;20466;-57
2024/04/03 03:33:05;;;;;;;2.67;2.47;;;3.90;99.90;;;;;;6229228;28;20475;-59
2024/04/03 03:36:08;;;;;;;3.13;2.83;;;3.90;99.90;;;;;;6220610;28;20492;-59
2024/04/03 03:39:13;;;;;;;4.07;3.13;;;3.90;99.90;;;;;;6215286;28;20456;-59
2024/04/03 03:42:18;;;;;;;3.03;2.73;;;3.90;99.90;;;;;;6211509;28;20483;-59
2024/04/03 03:45:25;;;;;;;7.87;3.90;;;3.80;99.90;;;;;;6213142;28;20476;-58
2024/04/03 03:55:18;;;;;;;5.33;4.20;;;3.80;99.90;;;;;;6204761;28;20543;-59
2024/04/03 03:58:30;;;;;;;5.30;4.33;;;3.70;99.90;;;;;;6209506;28;20764;-59
2024/04/03 04:01:36;;;;;;;3.90;3.60;;;3.80;99.90;;;;;;6201823;28;20494;-59
2024/04/03 04:04:39;;;;;;;3.90;3.60;;;3.80;99.90;;;;;;6233419;28;20485;-59
2024/04/03 04:07:47;;;;;;;3.70;3.40;;;3.80;99.90;;;;;;6233619;28;20970;-59
2024/04/03 04:10:58;;;;;;;4.80;3.80;;;3.90;99.90;;;;;;6233863;28;20572;-59
2024/04/03 04:14:09;;;;;;;2.90;2.60;;;3.90;99.90;;;;;;6233193;28;20573;-59
2024/04/03 04:17:15;;;;;;;3.73;2.90;;;4.00;99.90;;;;;;6233614;28;20446;-59
2024/04/03 04:20:19;;;;;;;2.70;2.50;;;4.00;99.90;;;;;;6233515;28;20482;-60
2024/04/03 04:23:23;;;;;;;3.00;2.37;;;4.00;99.90;;;;;;6233441;28;20572;-59
2024/04/03 04:26:26;;;;;;;7.53;2.33;;;4.10;99.90;;;;;;6232862;28;20440;-60
2024/04/03 04:29:29;;;;;;;3.33;3.00;;;4.20;99.90;;;;;;6232958;28;20443;-59
2024/04/03 04:32:48;;;;;;;4.63;3.10;;;4.30;99.90;;;;;;6233174;28;20459;-59
2024/04/03 04:35:56;;;;;;;2.40;2.20;;;4.30;99.90;;;;;;6233050;28;20490;-59
2024/04/03 04:39:08;;;;;;;3.50;2.20;;;4.40;99.90;;;;;;6224650;28;20927;-59
2024/04/03 04:42:11;;;;;;;3.13;2.17;;;4.50;99.90;;;;;;6208304;28;20928;-60
2024/04/03 04:45:22;;;;;;;2.87;2.10;;;4.50;99.90;;;;;;6208537;28;20444;-59
2024/04/03 04:48:27;;;;;;;2.87;2.20;;;4.70;99.90;;;;;;6208298;28;20456;-58
2024/04/03 04:51:33;;;;;;;4.33;2.67;;;4.80;99.90;;;;;;6208132;28;20487;-59
2024/04/03 04:54:37;;;;;;;4.50;2.43;;;4.90;99.90;;;;;;6208052;28;20492;-59
2024/04/03 04:57:40;;;;;;;2.77;2.40;;;5.20;99.90;;;;;;6219552;28;20451;-59
2024/04/03 05:00:46;;;;;;;3.20;2.87;;;6.30;99.90;;;;;;6210760;28;20460;-59
2024/04/03 05:03:52;;;;;;;3.17;1.90;;;7.80;99.40;;;;;;6207654;28;20482;-60
2024/04/03 05:06:57;;;;;;;3.77;1.83;;;9.30;95.40;;;;;;6211652;28;20463;-60
2024/04/03 05:10:04;;;;;;;4.93;2.80;;;10.50;91.00;;;;;;6230370;28;20616;-60
2024/04/03 05:13:06;;;;;;;2.77;2.20;;;11.70;85.20;;;;;;6223453;28;20479;-59
2024/04/03 05:16:15;;;;;;;3.33;2.20;;;12.20;79.30;;;;;;6206624;28;20487;-59
2024/04/03 05:19:22;;;;;;;3.00;2.60;;;11.80;74.70;;;;;;6185323;28;20555;-60
2024/04/03 05:22:25;;;;;;;2.93;1.73;;;11.50;77.10;;;;;;6183342;28;20477;-60
2024/04/03 05:25:29;;;;;;;3.90;2.70;;;12.40;77.00;;;;;;6194577;28;20903;-60
2024/04/03 05:28:32;;;;;;;5.97;4.40;;;14.00;71.40;;;;;;6205782;28;21098;-59
2024/04/03 05:31:44;;;;;;;6.40;5.80;;;15.50;66.30;;;;;;6206674;28;20491;-60
2024/04/03 05:34:59;;;;;;;5.63;3.57;;;17.00;60.20;;;;;;6206939;28;20510;-60
2024/04/03 05:38:03;;;;;;;3.83;2.13;;;18.50;55.40;;;;;;6207354;28;20498;-60
2024/04/03 05:41:08;;;;;;;3.70;2.80;;;19.60;51.80;;;;;;6206951;28;20475;-60
2024/04/03 05:44:12;;;;;;;1.70;1.50;;;20.50;49.50;;;;;;6190766;28;20213;-60
2024/04/03 05:47:15;;;;;;;2.90;2.00;;;21.00;47.10;;;;;;6207600;28;20201;-60
2024/04/03 05:50:22;;;;;;;2.20;2.00;;;21.00;45.80;;;;;;6206634;28;20216;-59
2024/04/03 05:53:25;;;;;;;4.20;2.40;;;20.90;45.00;;;;;;6206784;28;20286;-60
2024/04/03 05:56:31;;;;;;;2.97;2.50;;;20.70;44.60;;;;;;6213685;28;20229;-59
2024/04/03 05:59:36;;;;;;;2.40;1.90;;;20.10;44.30;;;;;;6197497;28;20263;-60
2024/04/03 06:02:43;;;;;;;2.63;1.60;;;19.60;45.30;;;;;;6181565;28;20226;-59
2024/04/03 06:06:03;;;;;;;3.00;1.67;;;19.60;45.70;;;;;;6182168;28;20213;-60
2024/04/03 06:09:06;;;;;;;4.63;2.03;;;19.70;45.50;;;;;;6182631;28;20210;-60
2024/04/03 06:12:12;;;;;;;2.93;2.10;;;20.00;45.30;;;;;;6181968;28;20558;-60
2024/04/03 06:15:15;;;;;;;4.17;1.90;;;20.40;45.30;;;;;;6193068;28;20235;-59
2024/04/03 06:18:21;;;;;;;11.30;2.10;;;20.60;44.20;;;;;;6206639;28;20213;-60
2024/04/03 06:21:24;;;;;;;2.53;1.70;;;20.60;44.30;;;;;;6205438;28;20216;-59
2024/04/03 06:24:29;;;;;;;3.93;2.13;;;20.60;44.20;;;;;;6205362;28;20507;-59
2024/04/03 06:27:32;;;;;;;2.53;1.30;;;20.60;44.00;;;;;;6205966;28;20721;-60
2024/04/03 06:30:46;;;;;;;3.40;2.30;;;20.90;43.90;;;;;;6213250;28;20611;-60
2024/04/03 06:33:50;;;;;;;7.10;1.80;;;21.50;43.50;;;;;;6228079;28;20718;-61
2024/04/03 06:37:14;;;;;;;3.13;1.60;;;22.60;42.40;;;;;;6228685;28;20230;-60
2024/04/03 06:40:19;;;;;;;6.60;2.73;;;24.00;39.90;;;;;;6228927;28;20214;-61
2024/04/03 06:43:32;;;;;;;2.20;1.93;;;25.50;37.20;;;;;;6229377;28;20220;-59
2024/04/03 06:46:45;;;;;;;2.60;1.80;;;26.80;35.40;;;;;;6227965;28;20200;-61
2024/04/03 06:49:52;;;;;;;3.23;1.80;;;27.90;33.20;;;;;;6212888;28;20208;-59
2024/04/03 06:52:58;;;;;;;3.77;1.60;;;28.90;31.50;;;;;;6211435;28;20567;-61
2024/04/03 06:56:03;;;;;;;2.67;1.80;;;29.40;30.00;;;;;;6205701;28;20232;-60
2024/04/03 06:59:07;;;;;;;4.63;1.47;;;30.30;29.10;;;;;;6222647;28;20214;-60
2024/04/03 07:02:12;;;;;;;2.20;1.67;;;31.00;28.50;;;;;;6227324;28;20326;-60
2024/04/03 07:05:15;;;;;;;3.33;1.73;;;31.70;27.20;;;;;;6254214;28;20199;-61
2024/04/03 07:08:21;;;;;;;3.20;1.83;;;32.30;26.20;;;;;;6252834;28;20199;-61
2024/04/03 07:11:23;;;;;;;2.63;1.90;;;32.80;25.50;;;;;;6219201;28;20326;-61
2024/04/03 07:14:34;;;;;;;5.63;2.58;;;33.30;24.80;;;;;;6204805;28;20230;-62
2024/04/03 07:17:37;;;;;;;2.30;1.90;;;33.70;24.40;;;;;;6204753;28;20679;-61
2024/04/03 07:20:41;;;;;;;3.70;1.77;;;34.00;23.90;;;;;;6204850;28;20236;-61
2024/04/03 07:23:51;;;;;;;2.65;2.00;;;34.30;23.40;;;;;;6204539;28;20526;-61
2024/04/03 07:26:56;;;;;;;4.03;1.90;;;34.60;23.10;;;;;;6205190;28;20228;-60
2024/04/03 07:30:08;;;;;;;6.55;2.22;;;35.00;22.80;;;;;;6206553;28;20216;-60
2024/04/03 07:33:11;;;;;;;3.83;1.73;;;35.40;22.20;;;;;;6208464;28;20594;-62
2024/04/03 07:36:21;;;;;;;2.85;1.80;;;36.10;21.80;;;;;;6223551;28;20202;-61
2024/04/03 07:39:31;;;;;;;1.90;1.52;;;35.30;21.90;;;;;;6250561;28;20203;-60
2024/04/03 07:42:36;;;;;;;3.17;1.88;;;36.20;21.30;;;;;;6214322;28;20228;-62
2024/04/03 07:45:42;;;;;;;4.93;2.13;;;36.90;20.40;;;;;;6238434;28;20359;-61
2024/04/03 07:48:46;;;;;;;4.50;1.67;;;37.40;20.00;;;;;;6232643;28;20251;-61
2024/04/03 07:51:50;;;;;;;6.28;2.15;;;37.90;19.70;;;;;;6205038;28;20220;-61
2024/04/03 07:54:55;;;;;;;3.25;1.42;;;38.40;19.30;;;;;;6204693;28;20216;-60
2024/04/03 07:57:59;;;;;;;4.82;1.35;;;39.20;18.70;;;;;;6204946;28;20200;-60
2024/04/03 08:01:05;;;;;;;4.20;1.48;;;39.60;18.30;;;;;;6208379;28;20212;-61
2024/04/03 08:04:10;;;;;;;5.93;2.30;;;40.00;17.70;;;;;;6207731;28;20235;-62
2024/04/03 08:07:13;;;;;;;2.85;1.73;;;40.30;17.80;;;;;;6210403;28;20227;-64
2024/04/03 08:10:25;;;;;;;7.72;2.13;;;40.40;17.40;;;;;;6217575;28;20658;-63
2024/04/03 08:13:29;;;;;;;2.35;1.60;;;40.30;17.40;;;;;;6221360;28;20220;-63
2024/04/03 08:16:35;;;;;;;1.40;1.13;;;40.00;17.10;;;;;;6205489;28;20196;-63
2024/04/03 08:19:47;;;;;;;4.55;1.70;;;40.10;17.00;;;;;;6204696;28;20250;-63
2024/04/03 08:22:50;;;;;;;3.30;1.60;;;39.70;17.00;;;;;;6209232;28;20239;-63
2024/04/03 08:26:07;;;;;;;5.20;1.48;;;38.90;17.10;;;;;;6227424;28;20550;-64
2024/04/03 08:29:14;;;;;;;2.13;1.45;;;38.50;17.50;;;;;;6241564;28;20204;-63
2024/04/03 08:32:17;;;;;;;2.22;1.38;;;38.20;17.50;;;;;;6226660;28;20672;-62
2024/04/03 08:35:31;;;;;;;1.95;1.60;;;37.90;17.60;;;;;;6228939;28;20200;-64
2024/04/03 08:38:33;;;;;;;3.10;1.67;;;37.80;17.90;;;;;;6224596;28;20219;-63
2024/04/03 08:41:39;;;;;;;4.20;1.77;;;37.70;18.30;;;;;;6207190;28;20228;-65
2024/04/03 08:44:46;;;;;;;4.50;2.03;;;37.40;18.60;;;;;;6209158;28;20573;-63
2024/04/03 08:47:52;;;;;;;3.28;1.75;;;37.00;18.70;;;;;;6232720;28;20319;-64
2024/04/03 08:50:56;;;;;;;4.65;1.85;;;36.50;18.80;;;;;;6232984;28;20212;-64
2024/04/03 08:54:06;;;;;;;4.50;2.30;;;36.00;19.10;;;;;;6232548;28;20670;-64
2024/04/03 08:57:11;;;;;;;4.53;2.40;;;35.50;19.90;;;;;;6208341;28;20798;-62
2024/04/03 09:00:17;;;;;;;3.03;1.77;;;34.80;20.50;;;;;;6208885;28;20200;-64
2024/04/03 09:03:22;;;;;;;6.95;2.22;;;34.20;21.30;;;;;;6232302;28;20230;-62
2024/04/03 09:06:40;;;;;;;2.88;2.08;;;34.10;21.40;;;;;;6221259;28;20715;-62
2024/04/03 09:09:43;;;;;;;2.13;1.67;;;33.60;21.60;;;;;;6208525;28;20472;-61
2024/04/03 09:12:52;;;;;;;4.88;2.28;;;33.30;22.00;;;;;;6224115;28;20285;-63
2024/04/03 09:16:00;;;;;;;2.95;1.98;;;33.00;22.40;;;;;;6223942;28;20208;-62
2024/04/03 09:19:06;;;;;;;5.00;2.22;;;32.60;22.40;;;;;;6212853;28;20236;-64
2024/04/03 09:22:11;;;;;;;2.40;1.83;;;31.90;22.50;;;;;;6232355;28;20235;-63
2024/04/03 09:25:14;;;;;;;2.90;2.60;;;31.10;23.20;;;;;;6230987;28;20226;-64
2024/04/03 09:28:33;;;;;;;4.30;2.25;;;30.90;24.80;;;;;;6232332;28;20212;-63
2024/04/03 09:31:40;;;;;;;4.47;2.72;;;30.30;25.30;;;;;;6231435;28;20277;-63
2024/04/03 09:34:48;;;;;;;4.10;2.10;;;29.40;26.20;;;;;;6232922;28;20200;-62
2024/04/03 09:37:52;;;;;;;1.87;1.70;;;29.70;26.20;;;;;;6219682;28;20212;-62
2024/04/03 09:41:03;;;;;;;3.45;2.08;;;29.80;26.20;;;;;;6220024;28;20208;-62
2024/04/03 09:44:15;;;;;;;2.92;1.88;;;30.50;26.20;;;;;;6206632;28;20236;-63
2024/04/03 09:47:25;;;;;;;5.07;2.30;;;31.30;25.50;;;;;;6191504;28;20220;-64
2024/04/03 09:50:39;;;;;;;4.75;2.10;;;31.20;25.70;;;;;;6207299;28;20208;-62
2024/04/03 09:53:44;;;;;;;2.42;2.22;;;30.90;26.00;;;;;;6207622;28;20228;-63
2024/04/03 09:56:48;;;;;;;2.95;1.98;;;31.10;26.10;;;;;;6210776;28;20200;-62
2024/04/03 10:00:02;;;;;;;2.78;2.28;;;30.60;26.70;;;;;;6223978;28;20220;-64
2024/04/03 10:03:14;;;;;;;2.38;1.60;;;30.50;26.50;;;;;;6206528;28;20225;-64
2024/04/03 10:06:17;;;;;;;3.90;1.92;;;30.50;26.00;;;;;;6214711;28;20290;-63
2024/04/03 10:09:25;;;;;;;2.23;1.97;;;30.50;26.20;;;;;;6206165;28;20218;-61
2024/04/03 10:12:32;;;;;;;3.90;2.42;;;30.20;26.50;;;;;;6204834;28;20224;-61
2024/04/03 10:15:43;;;;;;;2.33;1.87;;;30.10;26.90;;;;;;6213655;28;20223;-62
2024/04/03 10:18:52;;;;;;;4.10;2.40;;;29.60;26.50;;;;;;6215924;28;20233;-62
2024/04/03 10:22:00;;;;;;;2.83;1.90;;;28.60;27.90;;;;;;6219550;28;20263;-60
2024/04/03 10:25:08;;;;;;;3.20;2.50;;;28.40;27.70;;;;;;6209514;28;20292;-61
2024/04/03 10:28:20;;;;;;;4.33;2.40;;;28.30;28.60;;;;;;6204486;28;20224;-61
2024/04/03 10:31:36;;;;;;;2.00;1.80;;;27.70;29.30;;;;;;6205843;28;20238;-60
2024/04/03 10:34:41;;;;;;;2.23;1.77;;;26.70;29.60;;;;;;6215436;28;20218;-61
2024/04/03 10:37:44;;;;;;;4.10;2.03;;;26.30;30.00;;;;;;6218547;28;20260;-60
2024/04/03 10:40:55;;;;;;;2.63;2.23;;;26.00;30.90;;;;;;6224058;28;20604;-60
2024/04/03 10:43:59;;;;;;;2.60;2.00;;;26.10;31.70;;;;;;6210800;28;20225;-60
2024/04/03 10:47:13;;;;;;;3.30;2.87;;;26.10;31.30;;;;;;6210132;28;20232;-61
2024/04/03 10:50:18;;;;;;;4.53;2.60;;;25.50;32.00;;;;;;6226087;28;20298;-59
2024/04/03 10:53:22;;;;;;;2.40;2.20;;;24.80;33.00;;;;;;6225539;28;20686;-60
2024/04/03 10:56:24;;;;;;;4.03;2.30;;;24.50;34.20;;;;;;6235293;28;20245;-60
2024/04/03 10:59:27;;;;;;;2.50;2.30;;;24.60;35.00;;;;;;6243861;28;20214;-61
2024/04/03 11:02:31;;;;;;;3.43;2.70;;;24.40;35.50;;;;;;6226118;28;20232;-60
2024/04/03 11:05:36;;;;;;;3.20;2.60;;;23.80;35.70;;;;;;6220395;28;20204;-61
2024/04/03 11:08:37;;;;;;;5.50;2.47;;;23.90;36.70;;;;;;6230053;28;20633;-61
2024/04/03 11:11:41;;;;;;;2.77;2.57;;;23.70;37.20;;;;;;6233038;28;20224;-60
2024/04/03 11:14:42;;;;;;;4.63;2.70;;;23.40;38.00;;;;;;6212652;28;20599;-60
2024/04/03 11:17:46;;;;;;;2.87;2.67;;;23.20;38.70;;;;;;6204793;28;20201;-60
2024/04/03 11:20:49;;;;;;;2.93;2.73;;;23.20;38.70;;;;;;6204437;28;20658;-60
2024/04/03 11:23:51;;;;;;;3.83;2.90;;;23.20;39.10;;;;;;6204958;28;20269;-60
2024/04/03 11:26:52;;;;;;;2.90;2.70;;;23.20;38.40;;;;;;6203583;28;20484;-60
2024/04/03 11:29:55;;;;;;;3.20;2.50;;;22.70;39.70;;;;;;6207831;28;20647;-60
2024/04/03 11:32:58;;;;;;;3.80;2.40;;;22.70;39.80;;;;;;6225061;28;20896;-60
2024/04/03 11:36:00;;;;;;;3.40;2.40;;;22.70;41.00;;;;;;6215788;28;20205;-61
2024/04/03 11:39:02;;;;;;;2.77;2.20;;;22.60;40.30;;;;;;6204767;28;20212;-60
2024/04/03 11:42:04;;;;;;;3.27;2.50;;;22.20;40.60;;;;;;6223616;28;20235;-62
2024/04/03 11:45:07;;;;;;;2.97;2.10;;;21.70;40.80;;;;;;6231755;28;20716;-63
2024/04/03 11:48:11;;;;;;;3.00;2.70;;;21.70;41.10;;;;;;6211868;28;20593;-64
2024/04/03 11:51:13;;;;;;;2.07;1.87;;;21.40;41.30;;;;;;6221081;28;20292;-62
2024/04/03 11:54:17;;;;;;;3.50;2.17;;;21.00;42.30;;;;;;6226797;28;20239;-59
2024/04/03 11:57:18;;;;;;;3.00;1.93;;;20.50;43.20;;;;;;6219929;28;20205;-57
2024/04/03 12:00:20;;;;;;;5.70;2.67;;;20.40;44.00;;;;;;6212416;28;20700;-59
2024/04/03 12:03:23;;;;;;;4.97;2.80;;;20.20;44.50;;;;;;6230770;28;20234;-59
2024/04/03 12:06:40;;;;;;;4.23;2.50;;;19.20;46.70;;;;;;6213817;28;20673;-60
2024/04/03 12:09:43;;;;;;;2.67;2.10;;;19.00;47.40;;;;;;6208755;28;20629;-60
2024/04/03 12:12:57;;;;;;;2.50;1.77;;;18.40;48.30;;;;;;6220845;28;20213;-61
2024/04/03 12:16:04;;;;;;;4.63;2.30;;;18.20;49.40;;;;;;6206854;28;20259;-60
2024/04/03 12:19:33;;;;;;;1.60;1.50;;;17.70;49.80;;;;;;6231260;28;20239;-60
2024/04/03 12:22:36;;;;;;;2.40;2.20;;;17.90;50.70;;;;;;6220980;28;20235;-57
2024/04/03 12:25:42;;;;;;;3.10;1.97;;;18.10;49.70;;;;;;6219336;28;20622;-55
2024/04/03 12:28:55;;;;;;;1.80;1.60;;;18.10;48.10;;;;;;6208904;28;20240;-58
2024/04/03 12:31:58;;;;;;;2.17;1.53;;;18.00;47.90;;;;;;6224030;28;20290;-59
2024/04/03 12:35:04;;;;;;;3.37;1.47;;;18.00;48.30;;;;;;6212817;28;20519;-58
2024/04/03 12:38:10;;;;;;;1.70;1.47;;;17.30;49.10;;;;;;6221380;28;20950;-60
2024/04/03 12:41:23;;;;;;;2.97;1.43;;;17.60;49.20;;;;;;6214640;28;20223;-59
2024/04/03 12:44:26;;;;;;;1.60;1.40;;;17.70;49.40;;;;;;6207994;28;20436;-60
2024/04/03 12:47:43;;;;;;;4.57;1.57;;;18.10;48.90;;;;;;6211102;28;20253;-58
2024/04/03 12:50:56;;;;;;;1.87;1.63;;;18.40;48.80;;;;;;6210571;28;20205;-58
2024/04/03 12:54:00;;;;;;;1.93;1.47;;;18.60;48.40;;;;;;6217094;28;20239;-60
2024/04/03 12:57:05;;;;;;;3.70;1.40;;;18.80;46.50;;;;;;6231595;28;20204;-59
2024/04/03 13:00:12;;;;;;;1.70;1.00;;;18.60;45.70;;;;;;6232394;28;20216;-61
2024/04/03 13:03:18;;;;;;;2.80;1.50;;;18.40;47.00;;;;;;6231959;28;20231;-60
2024/04/03 13:06:36;;;;;;;2.60;1.10;;;18.40;47.40;;;;;;6208633;28;20572;-57
2024/04/03 13:13:00;;;;;;;1.30;1.07;;;18.30;48.00;;;;;;6207133;28;20232;-60
2024/04/03 13:16:13;;;;;;;1.80;1.27;;;18.60;47.40;;;;;;6219124;28;20200;-59
2024/04/03 13:19:16;;;;;;;3.37;1.67;;;18.80;47.00;;;;;;6230957;28;20236;-60
2024/04/03 13:22:31;;;;;;;5.70;1.87;;;18.90;46.40;;;;;;6231402;28;20228;-60
2024/04/03 13:25:33;;;;;;;5.70;2.00;;;18.90;46.20;;;;;;6228338;28;20557;-60
2024/04/03 13:28:37;;;;;;;2.13;1.10;;;18.90;46.70;;;;;;6211655;28;20225;-59
2024/04/03 13:31:40;;;;;;;5.20;1.90;;;19.50;46.30;;;;;;6235066;28;20232;-60
2024/04/03 13:34:49;;;;;;;1.93;1.30;;;19.50;44.80;;;;;;6221315;28;20219;-60
2024/04/03 13:37:54;;;;;;;2.47;1.07;;;19.30;43.90;;;;;;6240394;28;20781;-60
2024/04/03 13:41:02;;;;;;;2.70;1.27;;;19.10;44.80;;;;;;6243658;28;20215;-60
2024/04/03 13:44:08;;;;;;;4.60;1.40;;;19.20;44.40;;;;;;6235955;28;20229;-60
2024/04/03 13:47:14;;;;;;;5.40;1.63;;;19.30;44.30;;;;;;6244999;28;20216;-60
2024/04/03 13:50:17;;;;;;;5.37;1.40;;;18.80;44.10;;;;;;6229129;28;20204;-60
2024/04/03 13:53:27;;;;;;;2.97;1.33;;;18.80;45.00;;;;;;6237262;28;20606;-60
2024/04/03 13:56:30;;;;;;;1.60;1.10;;;18.60;44.90;;;;;;6236491;28;20204;-59
2024/04/03 13:59:37;;;;;;;3.47;1.53;;;18.70;45.10;;;;;;6241299;28;20246;-59
2024/04/03 14:02:43;;;;;;;2.00;1.10;;;18.90;44.80;;;;;;6228060;28;20221;-59
2024/04/03 14:05:46;;;;;;;4.30;1.50;;;18.70;44.80;;;;;;6230969;28;20212;-58
2024/04/03 14:09:03;;;;;;;1.83;1.00;;;18.70;44.40;;;;;;6215708;28;20231;-61
2024/04/03 14:12:08;;;;;;;3.40;1.67;;;18.90;43.20;;;;;;6230229;28;20319;-59
2024/04/03 14:15:12;;;;;;;1.43;1.00;;;19.20;41.90;;;;;;6225302;28;20628;-60
2024/04/03 14:18:15;;;;;;;2.10;0.93;;;19.60;41.20;;;;;;6227503;28;20215;-60
2024/04/03 14:21:18;;;;;;;2.93;1.03;;;20.00;40.50;;;;;;6237899;28;20511;-60
2024/04/03 14:24:22;;;;;;;1.93;1.00;;;20.00;40.80;;;;;;6208512;28;20209;-60
2024/04/03 14:27:23;;;;;;;3.10;1.20;;;20.10;40.30;;;;;;6208198;28;20213;-59
2024/04/03 14:30:25;;;;;;;1.67;0.90;;;19.80;40.30;;;;;;6223497;28;20220;-60
2024/04/03 14:33:28;;;;;;;1.40;0.80;;;19.60;40.80;;;;;;6222442;28;20286;-59
2024/04/03 14:36:29;;;;;;;2.60;0.77;;;19.20;41.00;;;;;;6205951;28;20212;-60
2024/04/03 14:39:33;;;;;;;1.10;1.00;;;18.60;41.80;;;;;;6206464;28;20208;-60
2024/04/03 14:42:34;;;;;;;2.23;0.83;;;18.30;42.70;;;;;;6218292;28;20241;-59
2024/04/03 14:45:37;;;;;;;2.40;1.37;;;18.00;43.30;;;;;;6246559;28;20623;-61
2024/04/03 14:48:39;;;;;;;2.80;1.17;;;18.00;44.00;;;;;;6239146;28;20288;-61
2024/04/03 14:51:41;;;;;;;0.93;0.80;;;18.00;43.90;;;;;;6240382;28;20264;-60
2024/04/03 14:54:49;;;;;;;0.93;0.93;;;17.90;44.00;;;;;;6247743;28;20200;-60
2024/04/03 14:57:53;;;;;;;2.27;1.90;;;17.60;43.90;;;;;;6236291;28;20497;-61
2024/04/03 15:00:55;;;;;;;3.57;1.00;;;17.30;44.60;;;;;;6243426;28;20711;-61
2024/04/03 15:03:56;;;;;;;1.53;1.13;;;17.00;45.40;;;;;;6222616;28;20462;-60
2024/04/03 15:06:58;;;;;;;1.00;0.80;;;16.80;46.00;;;;;;6216079;28;20536;-61
2024/04/03 15:10:01;;;;;;;1.20;0.87;;;16.60;46.70;;;;;;6209423;28;20516;-61
2024/04/03 15:13:04;;;;;;;3.27;1.10;;;16.40;46.10;;;;;;6205191;28;20493;-61
2024/04/03 15:16:05;;;;;;;1.00;0.90;;;16.30;46.80;;;;;;6204924;28;20877;-61
2024/04/03 15:19:07;;;;;;;3.00;0.73;;;16.20;46.90;;;;;;6217327;28;20467;-61
2024/04/03 15:22:10;;;;;;;1.20;0.80;;;16.30;47.40;;;;;;6229312;28;20463;-61
2024/04/03 15:25:14;;;;;;;1.10;0.70;;;16.40;47.30;;;;;;6228373;28;20508;-61
2024/04/03 15:28:15;;;;;;;1.27;0.80;;;16.30;47.70;;;;;;6217519;28;20495;-61
2024/04/03 15:31:17;;;;;;;1.10;0.90;;;16.50;47.60;;;;;;6204837;28;20454;-61
2024/04/03 15:34:18;;;;;;;1.00;0.90;;;16.60;47.80;;;;;;6204153;28;21036;-61
2024/04/03 15:37:20;;;;;;;2.20;1.03;;;16.40;47.70;;;;;;6204643;28;20440;-61
2024/04/03 15:40:25;;;;;;;1.80;1.10;;;16.30;48.10;;;;;;6204778;28;20509;-62
2024/04/03 15:43:29;;;;;;;1.97;1.00;;;16.30;48.10;;;;;;6204613;28;20541;-61
2024/04/03 15:46:34;;;;;;;1.73;0.93;;;16.40;48.10;;;;;;6204479;28;20452;-60
2024/04/03 15:49:46;;;;;;;3.43;1.13;;;16.50;48.00;;;;;;6206675;28;20507;-61
2024/04/03 15:52:52;;;;;;;2.60;1.00;;;16.70;48.10;;;;;;6216733;28;20494;-60
2024/04/03 15:56:10;;;;;;;2.00;1.30;;;16.70;48.00;;;;;;6210684;28;20466;-60
2024/04/03 15:59:16;;;;;;;1.23;1.13;;;16.60;47.90;;;;;;6232975;28;20469;-60
2024/04/03 16:02:20;;;;;;;2.37;1.20;;;16.40;49.00;;;;;;6233257;28;20531;-60
2024/04/03 16:05:22;;;;;;;2.43;1.10;;;16.30;48.70;;;;;;6214615;28;20508;-60
2024/04/03 16:08:27;;;;;;;1.57;1.10;;;16.30;49.00;;;;;;6215428;28;20479;-60
2024/04/03 16:11:33;;;;;;;5.33;1.13;;;16.40;49.00;;;;;;6208916;28;20514;-61
2024/04/03 16:14:41;;;;;;;1.47;1.33;;;16.30;49.30;;;;;;6214613;28;20459;-61
2024/04/03 16:17:43;;;;;;;3.17;1.30;;;15.90;50.10;;;;;;6192408;28;20498;-61
2024/04/03 16:24:06;;;;;;;1.97;1.50;;;15.40;50.90;;;;;;6211951;28;20810;-59
2024/04/03 16:27:14;;;;;;;1.17;0.87;;;15.60;51.30;;;;;;6202884;28;20483;-62
2024/04/03 16:30:21;;;;;;;1.20;1.10;;;15.70;51.20;;;;;;6210206;28;21078;-60